60MD weather

Walter Reed National Medical Center Heliport
Bethesda, Maryland, United States

Public forecast

Using degrees Fahrenheit for public forecast. Weather courtesy of forecast.io.

Closest aviation weather report (METAR) to Walter Reed National Medical Center Heliport

Closest report is College Park Airport, 8.2 nm (15.1 km) E. Retrieved 2019/12/15 07:36 UTC (8 minutes ago):

KCGS 150736Z AUTO 00000KT 10SM SCT049 BKN055 06/M01 A2973 RMK AO1 T00621015

Closest aviation forecast (TAF) to Walter Reed National Medical Center Heliport

Closest forecast is Ronald Reagan Washington National Airport, 9.3 nm (17.2 km) SSE. Retrieved 2019/12/15 06:22 UTC (1 hour ago):

TAF KDCA 150520Z 1506/1612 26009KT P6SM SCT150 FM160300 35004KT P6SM BKN120 FM160800 05004KT P6SM OVC060 FM161000 06004KT 5SM BR OVC040